sensor_id;sensor_type;location;lat;lon;timestamp;P1;durP1;ratioP1;P2;durP2;ratioP2
37507;SDS011;23360;46.936;15.514;2023-09-18T00:01:16;22.73;;;12.85;;
37507;SDS011;23360;46.936;15.514;2023-09-18T00:03:46;21.75;;;11.93;;
37507;SDS011;23360;46.936;15.514;2023-09-18T00:06:13;18.20;;;10.88;;
37507;SDS011;23360;46.936;15.514;2023-09-18T00:08:39;20.15;;;11.75;;
37507;SDS011;23360;46.936;15.514;2023-09-18T00:11:06;20.95;;;12.30;;
37507;SDS011;23360;46.936;15.514;2023-09-18T00:13:33;18.77;;;11.75;;
37507;SDS011;23360;46.936;15.514;2023-09-18T00:16:00;18.67;;;10.73;;
37507;SDS011;23360;46.936;15.514;2023-09-18T00:18:27;23.48;;;10.80;;
37507;SDS011;23360;46.936;15.514;2023-09-18T00:20:54;20.77;;;10.88;;
37507;SDS011;23360;46.936;15.514;2023-09-18T00:23:20;17.30;;;9.55;;
37507;SDS011;23360;46.936;15.514;2023-09-18T00:25:47;16.38;;;10.10;;
37507;SDS011;23360;46.936;15.514;2023-09-18T00:28:13;21.00;;;11.00;;
37507;SDS011;23360;46.936;15.514;2023-09-18T00:30:46;21.88;;;12.27;;
37507;SDS011;23360;46.936;15.514;2023-09-18T00:33:13;24.30;;;13.45;;
37507;SDS011;23360;46.936;15.514;2023-09-18T00:35:40;24.20;;;12.80;;
37507;SDS011;23360;46.936;15.514;2023-09-18T00:38:06;32.75;;;13.65;;
37507;SDS011;23360;46.936;15.514;2023-09-18T00:40:34;19.77;;;11.80;;
37507;SDS011;23360;46.936;15.514;2023-09-18T00:43:00;21.42;;;12.48;;
37507;SDS011;23360;46.936;15.514;2023-09-18T00:45:27;20.95;;;12.05;;
37507;SDS011;23360;46.936;15.514;2023-09-18T00:47:53;21.17;;;12.73;;
37507;SDS011;23360;46.936;15.514;2023-09-18T00:50:20;22.80;;;13.50;;
37507;SDS011;23360;46.936;15.514;2023-09-18T00:52:48;26.20;;;13.65;;
37507;SDS011;23360;46.936;15.514;2023-09-18T00:55:15;22.05;;;12.65;;
37507;SDS011;23360;46.936;15.514;2023-09-18T00:57:42;21.15;;;11.52;;
37507;SDS011;23360;46.936;15.514;2023-09-18T01:00:09;23.13;;;12.90;;
37507;SDS011;23360;46.936;15.514;2023-09-18T01:02:36;19.30;;;11.85;;
37507;SDS011;23360;46.936;15.514;2023-09-18T01:05:03;23.77;;;11.88;;
37507;SDS011;23360;46.936;15.514;2023-09-18T01:07:29;18.67;;;10.77;;
37507;SDS011;23360;46.936;15.514;2023-09-18T01:09:56;16.85;;;10.13;;
37507;SDS011;23360;46.936;15.514;2023-09-18T01:15:10;14.95;;;8.57;;
37507;SDS011;23360;46.936;15.514;2023-09-18T01:17:38;14.98;;;9.23;;
37507;SDS011;23360;46.936;15.514;2023-09-18T01:20:10;18.15;;;9.90;;
37507;SDS011;23360;46.936;15.514;2023-09-18T01:22:37;19.30;;;10.38;;
37507;SDS011;23360;46.936;15.514;2023-09-18T01:25:04;21.02;;;12.38;;
37507;SDS011;23360;46.936;15.514;2023-09-18T01:27:32;19.42;;;10.55;;
37507;SDS011;23360;46.936;15.514;2023-09-18T01:29:59;23.08;;;12.48;;
37507;SDS011;23360;46.936;15.514;2023-09-18T01:32:26;23.88;;;12.77;;
37507;SDS011;23360;46.936;15.514;2023-09-18T01:34:54;29.55;;;14.35;;
37507;SDS011;23360;46.936;15.514;2023-09-18T01:37:26;25.50;;;15.32;;
37507;SDS011;23360;46.936;15.514;2023-09-18T01:39:53;25.67;;;14.80;;
37507;SDS011;23360;46.936;15.514;2023-09-18T01:42:21;26.58;;;13.65;;
37507;SDS011;23360;46.936;15.514;2023-09-18T01:44:48;26.73;;;15.45;;
37507;SDS011;23360;46.936;15.514;2023-09-18T01:47:15;26.23;;;12.82;;
37507;SDS011;23360;46.936;15.514;2023-09-18T01:49:42;24.92;;;13.82;;
37507;SDS011;23360;46.936;15.514;2023-09-18T01:52:09;25.20;;;14.18;;
37507;SDS011;23360;46.936;15.514;2023-09-18T01:54:36;24.75;;;13.00;;
37507;SDS011;23360;46.936;15.514;2023-09-18T01:57:03;22.75;;;11.27;;
37507;SDS011;23360;46.936;15.514;2023-09-18T01:59:29;19.60;;;11.57;;
37507;SDS011;23360;46.936;15.514;2023-09-18T02:01:56;21.13;;;11.40;;
37507;SDS011;23360;46.936;15.514;2023-09-18T02:04:23;21.08;;;12.18;;
37507;SDS011;23360;46.936;15.514;2023-09-18T02:07:11;23.40;;;11.73;;
37507;SDS011;23360;46.936;15.514;2023-09-18T02:09:38;26.20;;;12.40;;
37507;SDS011;23360;46.936;15.514;2023-09-18T02:12:05;37.05;;;13.18;;
37507;SDS011;23360;46.936;15.514;2023-09-18T02:14:32;56.42;;;13.90;;
37507;SDS011;23360;46.936;15.514;2023-09-18T02:17:00;27.08;;;11.80;;
37507;SDS011;23360;46.936;15.514;2023-09-18T02:19:27;33.55;;;17.75;;
37507;SDS011;23360;46.936;15.514;2023-09-18T02:21:55;24.25;;;14.35;;
37507;SDS011;23360;46.936;15.514;2023-09-18T02:24:22;20.77;;;12.40;;
37507;SDS011;23360;46.936;15.514;2023-09-18T02:26:49;22.52;;;13.63;;
37507;SDS011;23360;46.936;15.514;2023-09-18T02:29:16;26.38;;;12.82;;
37507;SDS011;23360;46.936;15.514;2023-09-18T02:31:43;28.17;;;11.88;;
37507;SDS011;23360;46.936;15.514;2023-09-18T02:34:09;95.07;;;13.23;;
37507;SDS011;23360;46.936;15.514;2023-09-18T02:36:36;53.40;;;12.80;;
37507;SDS011;23360;46.936;15.514;2023-09-18T02:39:02;56.22;;;11.65;;
37507;SDS011;23360;46.936;15.514;2023-09-18T02:41:29;17.98;;;10.43;;
37507;SDS011;23360;46.936;15.514;2023-09-18T02:43:56;22.15;;;11.70;;
37507;SDS011;23360;46.936;15.514;2023-09-18T02:46:22;25.27;;;12.57;;
37507;SDS011;23360;46.936;15.514;2023-09-18T02:48:49;36.65;;;13.45;;
37507;SDS011;23360;46.936;15.514;2023-09-18T02:51:16;27.85;;;11.60;;
37507;SDS011;23360;46.936;15.514;2023-09-18T02:53:42;23.90;;;11.63;;
37507;SDS011;23360;46.936;15.514;2023-09-18T02:56:09;29.48;;;11.60;;
37507;SDS011;23360;46.936;15.514;2023-09-18T02:58:36;24.27;;;11.30;;
37507;SDS011;23360;46.936;15.514;2023-09-18T03:01:02;25.10;;;11.60;;
37507;SDS011;23360;46.936;15.514;2023-09-18T03:03:31;22.15;;;11.77;;
37507;SDS011;23360;46.936;15.514;2023-09-18T03:06:04;17.80;;;10.45;;
37507;SDS011;23360;46.936;15.514;2023-09-18T03:10:58;17.88;;;11.02;;
37507;SDS011;23360;46.936;15.514;2023-09-18T03:13:26;16.73;;;11.05;;
37507;SDS011;23360;46.936;15.514;2023-09-18T03:15:52;326.58;;;19.60;;
37507;SDS011;23360;46.936;15.514;2023-09-18T03:18:19;288.52;;;16.27;;
37507;SDS011;23360;46.936;15.514;2023-09-18T03:20:45;177.18;;;15.90;;
37507;SDS011;23360;46.936;15.514;2023-09-18T03:23:12;50.90;;;14.13;;
37507;SDS011;23360;46.936;15.514;2023-09-18T03:25:38;69.53;;;11.60;;
37507;SDS011;23360;46.936;15.514;2023-09-18T03:28:17;46.85;;;10.23;;
37507;SDS011;23360;46.936;15.514;2023-09-18T03:30:44;33.20;;;11.05;;
37507;SDS011;23360;46.936;15.514;2023-09-18T03:33:11;30.48;;;10.45;;
37507;SDS011;23360;46.936;15.514;2023-09-18T03:35:44;26.50;;;13.40;;
37507;SDS011;23360;46.936;15.514;2023-09-18T03:38:11;18.15;;;9.93;;
37507;SDS011;23360;46.936;15.514;2023-09-18T03:40:38;25.08;;;10.75;;
37507;SDS011;23360;46.936;15.514;2023-09-18T03:43:04;16.98;;;10.10;;
37507;SDS011;23360;46.936;15.514;2023-09-18T03:45:31;128.23;;;11.63;;
37507;SDS011;23360;46.936;15.514;2023-09-18T03:47:57;23.42;;;9.73;;
37507;SDS011;23360;46.936;15.514;2023-09-18T03:50:24;123.43;;;13.68;;
37507;SDS011;23360;46.936;15.514;2023-09-18T03:52:50;14.45;;;8.02;;
37507;SDS011;23360;46.936;15.514;2023-09-18T03:55:17;25.05;;;9.70;;
37507;SDS011;23360;46.936;15.514;2023-09-18T03:57:43;22.90;;;12.05;;
37507;SDS011;23360;46.936;15.514;2023-09-18T04:00:12;38.75;;;17.55;;
37507;SDS011;23360;46.936;15.514;2023-09-18T04:02:39;35.40;;;18.35;;
37507;SDS011;23360;46.936;15.514;2023-09-18T04:05:05;33.25;;;16.55;;
37507;SDS011;23360;46.936;15.514;2023-09-18T04:07:33;30.30;;;14.65;;
37507;SDS011;23360;46.936;15.514;2023-09-18T04:10:00;24.80;;;13.63;;
37507;SDS011;23360;46.936;15.514;2023-09-18T04:12:26;21.45;;;12.73;;
37507;SDS011;23360;46.936;15.514;2023-09-18T04:14:53;21.00;;;11.65;;
37507;SDS011;23360;46.936;15.514;2023-09-18T04:17:19;20.23;;;11.32;;
37507;SDS011;23360;46.936;15.514;2023-09-18T04:19:47;29.17;;;14.40;;
37507;SDS011;23360;46.936;15.514;2023-09-18T04:22:14;39.97;;;14.38;;
37507;SDS011;23360;46.936;15.514;2023-09-18T04:24:41;33.90;;;15.77;;
37507;SDS011;23360;46.936;15.514;2023-09-18T04:27:07;37.08;;;14.98;;
37507;SDS011;23360;46.936;15.514;2023-09-18T04:29:34;38.20;;;17.77;;
37507;SDS011;23360;46.936;15.514;2023-09-18T04:32:02;37.20;;;16.45;;
37507;SDS011;23360;46.936;15.514;2023-09-18T04:34:30;27.58;;;13.65;;
37507;SDS011;23360;46.936;15.514;2023-09-18T04:36:57;25.20;;;14.80;;
37507;SDS011;23360;46.936;15.514;2023-09-18T04:39:23;28.10;;;14.32;;
37507;SDS011;23360;46.936;15.514;2023-09-18T04:41:50;30.52;;;16.35;;
37507;SDS011;23360;46.936;15.514;2023-09-18T04:44:16;46.83;;;17.75;;
37507;SDS011;23360;46.936;15.514;2023-09-18T04:46:44;36.58;;;15.13;;
37507;SDS011;23360;46.936;15.514;2023-09-18T04:49:10;22.60;;;13.57;;
37507;SDS011;23360;46.936;15.514;2023-09-18T04:51:40;21.20;;;11.40;;
37507;SDS011;23360;46.936;15.514;2023-09-18T04:54:07;20.30;;;11.60;;
37507;SDS011;23360;46.936;15.514;2023-09-18T04:56:34;23.48;;;12.27;;
37507;SDS011;23360;46.936;15.514;2023-09-18T04:59:00;22.73;;;11.65;;
37507;SDS011;23360;46.936;15.514;2023-09-18T05:01:27;17.98;;;10.68;;
37507;SDS011;23360;46.936;15.514;2023-09-18T05:03:54;30.48;;;12.85;;
37507;SDS011;23360;46.936;15.514;2023-09-18T05:06:20;18.80;;;11.63;;
37507;SDS011;23360;46.936;15.514;2023-09-18T05:08:47;23.98;;;9.88;;
37507;SDS011;23360;46.936;15.514;2023-09-18T05:11:14;24.50;;;11.38;;
37507;SDS011;23360;46.936;15.514;2023-09-18T05:13:40;26.52;;;11.25;;
37507;SDS011;23360;46.936;15.514;2023-09-18T05:16:07;20.90;;;11.63;;
37507;SDS011;23360;46.936;15.514;2023-09-18T05:18:33;20.83;;;12.02;;
37507;SDS011;23360;46.936;15.514;2023-09-18T05:21:00;32.25;;;15.20;;
37507;SDS011;23360;46.936;15.514;2023-09-18T05:23:28;30.00;;;16.08;;
37507;SDS011;23360;46.936;15.514;2023-09-18T05:25:55;30.40;;;15.23;;
37507;SDS011;23360;46.936;15.514;2023-09-18T05:28:21;31.20;;;14.77;;
37507;SDS011;23360;46.936;15.514;2023-09-18T05:30:48;28.90;;;15.60;;
37507;SDS011;23360;46.936;15.514;2023-09-18T05:33:14;48.33;;;16.63;;
37507;SDS011;23360;46.936;15.514;2023-09-18T05:35:41;30.50;;;16.48;;
37507;SDS011;23360;46.936;15.514;2023-09-18T05:38:11;25.95;;;12.30;;
37507;SDS011;23360;46.936;15.514;2023-09-18T05:40:40;13.38;;;8.88;;
37507;SDS011;23360;46.936;15.514;2023-09-18T05:43:06;14.55;;;8.90;;
37507;SDS011;23360;46.936;15.514;2023-09-18T05:45:34;18.98;;;8.07;;
37507;SDS011;23360;46.936;15.514;2023-09-18T05:48:01;15.20;;;8.93;;
37507;SDS011;23360;46.936;15.514;2023-09-18T05:50:31;15.85;;;8.50;;
37507;SDS011;23360;46.936;15.514;2023-09-18T05:52:58;12.77;;;8.40;;
37507;SDS011;23360;46.936;15.514;2023-09-18T05:55:30;14.65;;;9.52;;
37507;SDS011;23360;46.936;15.514;2023-09-18T05:57:57;20.52;;;9.52;;
37507;SDS011;23360;46.936;15.514;2023-09-18T06:00:24;24.63;;;10.38;;
37507;SDS011;23360;46.936;15.514;2023-09-18T06:02:50;26.23;;;11.15;;
37507;SDS011;23360;46.936;15.514;2023-09-18T06:05:17;23.90;;;11.68;;
37507;SDS011;23360;46.936;15.514;2023-09-18T06:07:48;20.48;;;11.40;;
37507;SDS011;23360;46.936;15.514;2023-09-18T06:10:16;23.92;;;11.45;;
37507;SDS011;23360;46.936;15.514;2023-09-18T06:12:44;17.42;;;11.32;;
37507;SDS011;23360;46.936;15.514;2023-09-18T06:15:11;18.15;;;11.25;;
37507;SDS011;23360;46.936;15.514;2023-09-18T06:17:39;20.75;;;9.30;;
37507;SDS011;23360;46.936;15.514;2023-09-18T06:20:07;15.70;;;9.77;;
37507;SDS011;23360;46.936;15.514;2023-09-18T06:22:37;18.75;;;10.27;;
37507;SDS011;23360;46.936;15.514;2023-09-18T06:25:05;20.38;;;11.70;;
37507;SDS011;23360;46.936;15.514;2023-09-18T06:27:35;19.00;;;11.00;;
37507;SDS011;23360;46.936;15.514;2023-09-18T06:30:03;16.05;;;10.63;;
37507;SDS011;23360;46.936;15.514;2023-09-18T06:32:30;14.73;;;9.25;;
37507;SDS011;23360;46.936;15.514;2023-09-18T06:34:57;19.35;;;10.32;;
37507;SDS011;23360;46.936;15.514;2023-09-18T06:37:26;20.40;;;11.02;;
37507;SDS011;23360;46.936;15.514;2023-09-18T06:39:53;19.40;;;10.55;;
37507;SDS011;23360;46.936;15.514;2023-09-18T06:42:19;16.92;;;10.18;;
37507;SDS011;23360;46.936;15.514;2023-09-18T06:44:46;16.98;;;8.73;;
37507;SDS011;23360;46.936;15.514;2023-09-18T06:47:13;17.17;;;8.98;;
37507;SDS011;23360;46.936;15.514;2023-09-18T06:49:41;19.08;;;10.55;;
37507;SDS011;23360;46.936;15.514;2023-09-18T06:52:08;19.08;;;10.93;;
37507;SDS011;23360;46.936;15.514;2023-09-18T06:54:35;17.90;;;10.82;;
37507;SDS011;23360;46.936;15.514;2023-09-18T06:57:02;20.65;;;11.25;;
37507;SDS011;23360;46.936;15.514;2023-09-18T06:59:29;21.27;;;11.32;;
37507;SDS011;23360;46.936;15.514;2023-09-18T07:01:57;18.20;;;9.80;;
37507;SDS011;23360;46.936;15.514;2023-09-18T07:04:24;16.02;;;9.52;;
37507;SDS011;23360;46.936;15.514;2023-09-18T07:06:50;20.25;;;10.40;;
37507;SDS011;23360;46.936;15.514;2023-09-18T07:09:19;20.63;;;10.98;;
37507;SDS011;23360;46.936;15.514;2023-09-18T07:11:49;23.05;;;11.45;;
37507;SDS011;23360;46.936;15.514;2023-09-18T07:14:17;18.65;;;9.95;;
37507;SDS011;23360;46.936;15.514;2023-09-18T07:16:43;20.40;;;10.52;;
37507;SDS011;23360;46.936;15.514;2023-09-18T07:19:10;16.77;;;10.60;;
37507;SDS011;23360;46.936;15.514;2023-09-18T07:21:38;20.75;;;10.23;;
37507;SDS011;23360;46.936;15.514;2023-09-18T07:24:06;17.35;;;9.65;;
37507;SDS011;23360;46.936;15.514;2023-09-18T07:26:33;16.33;;;10.50;;
37507;SDS011;23360;46.936;15.514;2023-09-18T07:29:00;17.73;;;10.05;;
37507;SDS011;23360;46.936;15.514;2023-09-18T07:31:28;19.83;;;10.07;;
37507;SDS011;23360;46.936;15.514;2023-09-18T07:33:54;17.75;;;10.18;;
37507;SDS011;23360;46.936;15.514;2023-09-18T07:36:21;23.10;;;10.73;;
37507;SDS011;23360;46.936;15.514;2023-09-18T07:38:48;17.65;;;10.23;;
37507;SDS011;23360;46.936;15.514;2023-09-18T07:41:14;21.10;;;10.95;;
37507;SDS011;23360;46.936;15.514;2023-09-18T07:43:42;17.92;;;11.35;;
37507;SDS011;23360;46.936;15.514;2023-09-18T07:46:08;21.35;;;10.90;;
37507;SDS011;23360;46.936;15.514;2023-09-18T07:48:34;16.55;;;10.68;;
37507;SDS011;23360;46.936;15.514;2023-09-18T07:51:01;17.55;;;11.02;;
37507;SDS011;23360;46.936;15.514;2023-09-18T07:53:28;14.23;;;9.65;;
37507;SDS011;23360;46.936;15.514;2023-09-18T07:55:55;15.13;;;9.25;;
37507;SDS011;23360;46.936;15.514;2023-09-18T07:58:22;13.98;;;9.32;;
37507;SDS011;23360;46.936;15.514;2023-09-18T08:00:49;14.60;;;8.77;;
37507;SDS011;23360;46.936;15.514;2023-09-18T08:03:20;15.93;;;10.02;;
37507;SDS011;23360;46.936;15.514;2023-09-18T08:05:52;12.77;;;9.15;;
37507;SDS011;23360;46.936;15.514;2023-09-18T08:08:20;19.10;;;10.27;;
37507;SDS011;23360;46.936;15.514;2023-09-18T08:10:46;18.50;;;9.27;;
37507;SDS011;23360;46.936;15.514;2023-09-18T08:13:13;16.58;;;10.25;;
37507;SDS011;23360;46.936;15.514;2023-09-18T08:15:40;16.73;;;9.43;;
37507;SDS011;23360;46.936;15.514;2023-09-18T08:18:06;20.85;;;9.43;;
37507;SDS011;23360;46.936;15.514;2023-09-18T08:20:33;15.68;;;8.75;;
37507;SDS011;23360;46.936;15.514;2023-09-18T08:23:00;18.08;;;9.80;;
37507;SDS011;23360;46.936;15.514;2023-09-18T08:25:31;13.80;;;8.55;;
37507;SDS011;23360;46.936;15.514;2023-09-18T08:27:58;15.88;;;8.85;;
37507;SDS011;23360;46.936;15.514;2023-09-18T08:30:24;20.35;;;9.35;;
37507;SDS011;23360;46.936;15.514;2023-09-18T08:32:51;13.90;;;8.25;;
37507;SDS011;23360;46.936;15.514;2023-09-18T08:35:18;12.40;;;7.50;;
37507;SDS011;23360;46.936;15.514;2023-09-18T08:37:45;17.23;;;8.02;;
37507;SDS011;23360;46.936;15.514;2023-09-18T08:40:12;14.60;;;7.47;;
37507;SDS011;23360;46.936;15.514;2023-09-18T08:42:44;19.77;;;8.02;;
37507;SDS011;23360;46.936;15.514;2023-09-18T08:45:13;9.32;;;6.35;;
37507;SDS011;23360;46.936;15.514;2023-09-18T08:47:40;16.48;;;7.70;;
37507;SDS011;23360;46.936;15.514;2023-09-18T08:50:10;14.57;;;6.80;;
37507;SDS011;23360;46.936;15.514;2023-09-18T08:52:37;16.40;;;7.00;;
37507;SDS011;23360;46.936;15.514;2023-09-18T08:55:04;11.52;;;7.28;;
37507;SDS011;23360;46.936;15.514;2023-09-18T08:57:33;9.40;;;6.38;;
37507;SDS011;23360;46.936;15.514;2023-09-18T09:00:02;10.68;;;6.82;;
37507;SDS011;23360;46.936;15.514;2023-09-18T09:02:33;10.57;;;6.93;;
37507;SDS011;23360;46.936;15.514;2023-09-18T09:05:00;11.63;;;6.07;;
37507;SDS011;23360;46.936;15.514;2023-09-18T09:07:26;10.57;;;6.35;;
37507;SDS011;23360;46.936;15.514;2023-09-18T09:09:55;11.80;;;6.38;;
37507;SDS011;23360;46.936;15.514;2023-09-18T09:15:09;14.18;;;6.63;;
37507;SDS011;23360;46.936;15.514;2023-09-18T09:17:35;14.52;;;7.28;;
37507;SDS011;23360;46.936;15.514;2023-09-18T09:20:09;12.05;;;7.00;;
37507;SDS011;23360;46.936;15.514;2023-09-18T09:22:39;11.00;;;6.40;;
37507;SDS011;23360;46.936;15.514;2023-09-18T09:25:28;11.73;;;7.10;;
37507;SDS011;23360;46.936;15.514;2023-09-18T09:27:57;11.50;;;6.90;;
37507;SDS011;23360;46.936;15.514;2023-09-18T09:30:25;10.40;;;6.93;;
37507;SDS011;23360;46.936;15.514;2023-09-18T09:32:52;13.20;;;7.80;;
37507;SDS011;23360;46.936;15.514;2023-09-18T09:35:23;11.52;;;7.15;;
37507;SDS011;23360;46.936;15.514;2023-09-18T09:37:50;15.65;;;6.70;;
37507;SDS011;23360;46.936;15.514;2023-09-18T09:40:20;11.65;;;6.50;;
37507;SDS011;23360;46.936;15.514;2023-09-18T09:42:46;9.75;;;6.28;;
37507;SDS011;23360;46.936;15.514;2023-09-18T09:45:14;10.20;;;6.30;;
37507;SDS011;23360;46.936;15.514;2023-09-18T09:47:43;12.85;;;6.85;;
37507;SDS011;23360;46.936;15.514;2023-09-18T09:52:47;9.63;;;6.22;;
37507;SDS011;23360;46.936;15.514;2023-09-18T09:57:48;11.23;;;6.80;;
37507;SDS011;23360;46.936;15.514;2023-09-18T10:00:15;11.85;;;7.78;;
37507;SDS011;23360;46.936;15.514;2023-09-18T10:02:57;12.60;;;6.40;;
37507;SDS011;23360;46.936;15.514;2023-09-18T10:05:26;12.27;;;6.85;;
37507;SDS011;23360;46.936;15.514;2023-09-18T10:07:59;13.68;;;7.35;;
37507;SDS011;23360;46.936;15.514;2023-09-18T10:10:28;13.95;;;7.07;;
37507;SDS011;23360;46.936;15.514;2023-09-18T10:12:55;16.38;;;6.68;;
37507;SDS011;23360;46.936;15.514;2023-09-18T10:15:23;15.18;;;7.63;;
37507;SDS011;23360;46.936;15.514;2023-09-18T10:17:51;16.77;;;8.68;;
37507;SDS011;23360;46.936;15.514;2023-09-18T10:20:21;13.93;;;7.63;;
37507;SDS011;23360;46.936;15.514;2023-09-18T10:22:54;11.67;;;7.37;;
37507;SDS011;23360;46.936;15.514;2023-09-18T10:25:28;13.90;;;8.02;;
37507;SDS011;23360;46.936;15.514;2023-09-18T10:30:24;10.52;;;6.43;;
37507;SDS011;23360;46.936;15.514;2023-09-18T10:32:53;13.82;;;7.10;;
37507;SDS011;23360;46.936;15.514;2023-09-18T10:35:20;11.02;;;6.80;;
37507;SDS011;23360;46.936;15.514;2023-09-18T10:37:48;15.93;;;7.55;;
37507;SDS011;23360;46.936;15.514;2023-09-18T10:40:14;12.43;;;6.03;;
37507;SDS011;23360;46.936;15.514;2023-09-18T10:42:42;19.45;;;8.18;;
37507;SDS011;23360;46.936;15.514;2023-09-18T10:45:09;14.45;;;8.32;;
37507;SDS011;23360;46.936;15.514;2023-09-18T10:47:37;12.15;;;7.50;;
37507;SDS011;23360;46.936;15.514;2023-09-18T10:50:04;14.15;;;7.65;;
37507;SDS011;23360;46.936;15.514;2023-09-18T10:52:43;13.25;;;7.45;;
37507;SDS011;23360;46.936;15.514;2023-09-18T10:55:13;14.85;;;7.13;;
37507;SDS011;23360;46.936;15.514;2023-09-18T10:57:50;11.18;;;6.95;;
37507;SDS011;23360;46.936;15.514;2023-09-18T11:00:17;12.45;;;7.18;;
37507;SDS011;23360;46.936;15.514;2023-09-18T11:02:51;9.98;;;6.70;;
37507;SDS011;23360;46.936;15.514;2023-09-18T11:05:34;12.25;;;7.13;;
37507;SDS011;23360;46.936;15.514;2023-09-18T11:10:56;11.48;;;6.47;;
37507;SDS011;23360;46.936;15.514;2023-09-18T11:13:29;14.75;;;5.97;;
37507;SDS011;23360;46.936;15.514;2023-09-18T11:16:15;10.75;;;5.90;;
37507;SDS011;23360;46.936;15.514;2023-09-18T11:18:42;10.55;;;6.00;;
37507;SDS011;23360;46.936;15.514;2023-09-18T11:21:10;11.60;;;5.95;;
37507;SDS011;23360;46.936;15.514;2023-09-18T11:23:37;23.00;;;7.03;;
37507;SDS011;23360;46.936;15.514;2023-09-18T11:26:14;13.95;;;7.03;;
37507;SDS011;23360;46.936;15.514;2023-09-18T11:28:41;12.20;;;5.93;;
37507;SDS011;23360;46.936;15.514;2023-09-18T11:31:09;13.32;;;6.05;;
37507;SDS011;23360;46.936;15.514;2023-09-18T11:33:37;13.40;;;6.07;;
37507;SDS011;23360;46.936;15.514;2023-09-18T11:38:35;9.52;;;6.45;;
37507;SDS011;23360;46.936;15.514;2023-09-18T11:41:22;10.02;;;6.15;;
37507;SDS011;23360;46.936;15.514;2023-09-18T11:43:48;9.52;;;6.28;;
37507;SDS011;23360;46.936;15.514;2023-09-18T11:46:17;22.35;;;6.68;;
37507;SDS011;23360;46.936;15.514;2023-09-18T11:48:44;20.38;;;7.22;;
37507;SDS011;23360;46.936;15.514;2023-09-18T11:51:11;10.32;;;6.45;;
37507;SDS011;23360;46.936;15.514;2023-09-18T11:53:38;11.07;;;6.15;;
37507;SDS011;23360;46.936;15.514;2023-09-18T11:56:10;14.50;;;6.78;;
37507;SDS011;23360;46.936;15.514;2023-09-18T11:58:47;11.88;;;6.53;;
37507;SDS011;23360;46.936;15.514;2023-09-18T12:01:14;14.82;;;6.68;;
37507;SDS011;23360;46.936;15.514;2023-09-18T12:03:44;13.60;;;6.68;;
37507;SDS011;23360;46.936;15.514;2023-09-18T12:06:11;14.60;;;6.13;;
37507;SDS011;23360;46.936;15.514;2023-09-18T12:08:42;12.57;;;6.75;;
37507;SDS011;23360;46.936;15.514;2023-09-18T12:11:08;15.77;;;6.07;;
37507;SDS011;23360;46.936;15.514;2023-09-18T12:13:35;11.52;;;6.47;;
37507;SDS011;23360;46.936;15.514;2023-09-18T12:16:02;13.63;;;6.55;;
37507;SDS011;23360;46.936;15.514;2023-09-18T12:18:32;11.35;;;6.07;;
37507;SDS011;23360;46.936;15.514;2023-09-18T12:21:02;12.15;;;6.70;;
37507;SDS011;23360;46.936;15.514;2023-09-18T12:23:37;17.65;;;6.72;;
37507;SDS011;23360;46.936;15.514;2023-09-18T12:26:05;16.33;;;6.50;;
37507;SDS011;23360;46.936;15.514;2023-09-18T12:28:35;10.52;;;6.38;;
37507;SDS011;23360;46.936;15.514;2023-09-18T12:31:02;13.13;;;6.10;;
37507;SDS011;23360;46.936;15.514;2023-09-18T12:33:36;11.50;;;6.57;;
37507;SDS011;23360;46.936;15.514;2023-09-18T12:36:03;19.92;;;6.30;;
37507;SDS011;23360;46.936;15.514;2023-09-18T12:38:31;12.40;;;6.63;;
37507;SDS011;23360;46.936;15.514;2023-09-18T12:40:59;22.00;;;7.07;;
37507;SDS011;23360;46.936;15.514;2023-09-18T12:43:36;11.32;;;6.80;;
37507;SDS011;23360;46.936;15.514;2023-09-18T12:46:04;14.00;;;6.45;;
37507;SDS011;23360;46.936;15.514;2023-09-18T12:48:31;19.70;;;6.75;;
37507;SDS011;23360;46.936;15.514;2023-09-18T12:51:05;22.17;;;6.75;;
37507;SDS011;23360;46.936;15.514;2023-09-18T12:53:32;16.00;;;6.32;;
37507;SDS011;23360;46.936;15.514;2023-09-18T12:56:09;13.48;;;6.20;;
37507;SDS011;23360;46.936;15.514;2023-09-18T12:58:36;11.18;;;5.85;;
37507;SDS011;23360;46.936;15.514;2023-09-18T13:01:22;14.52;;;7.38;;
37507;SDS011;23360;46.936;15.514;2023-09-18T13:03:49;19.77;;;7.32;;
37507;SDS011;23360;46.936;15.514;2023-09-18T13:06:17;14.88;;;6.43;;
37507;SDS011;23360;46.936;15.514;2023-09-18T13:08:44;10.60;;;6.40;;
37507;SDS011;23360;46.936;15.514;2023-09-18T13:11:10;21.23;;;7.43;;
37507;SDS011;23360;46.936;15.514;2023-09-18T13:13:43;23.20;;;7.40;;
37507;SDS011;23360;46.936;15.514;2023-09-18T13:16:12;20.58;;;7.32;;
37507;SDS011;23360;46.936;15.514;2023-09-18T13:18:41;12.25;;;6.72;;
37507;SDS011;23360;46.936;15.514;2023-09-18T13:21:11;18.13;;;6.68;;
37507;SDS011;23360;46.936;15.514;2023-09-18T13:23:38;17.77;;;6.75;;
37507;SDS011;23360;46.936;15.514;2023-09-18T13:26:05;18.50;;;6.93;;
37507;SDS011;23360;46.936;15.514;2023-09-18T13:28:32;19.30;;;6.65;;
37507;SDS011;23360;46.936;15.514;2023-09-18T13:31:03;16.85;;;6.95;;
37507;SDS011;23360;46.936;15.514;2023-09-18T13:33:37;14.95;;;6.70;;
37507;SDS011;23360;46.936;15.514;2023-09-18T13:36:05;13.17;;;7.07;;
37507;SDS011;23360;46.936;15.514;2023-09-18T13:38:32;16.20;;;6.75;;
37507;SDS011;23360;46.936;15.514;2023-09-18T13:40:59;10.48;;;6.53;;
37507;SDS011;23360;46.936;15.514;2023-09-18T13:43:26;17.75;;;7.05;;
37507;SDS011;23360;46.936;15.514;2023-09-18T13:45:53;23.65;;;7.40;;
37507;SDS011;23360;46.936;15.514;2023-09-18T13:48:21;17.17;;;6.38;;
37507;SDS011;23360;46.936;15.514;2023-09-18T13:50:49;21.95;;;6.82;;
37507;SDS011;23360;46.936;15.514;2023-09-18T13:53:17;14.00;;;7.05;;
37507;SDS011;23360;46.936;15.514;2023-09-18T13:55:44;18.98;;;6.93;;
37507;SDS011;23360;46.936;15.514;2023-09-18T13:58:11;14.23;;;6.70;;
37507;SDS011;23360;46.936;15.514;2023-09-18T14:00:37;22.80;;;6.35;;
37507;SDS011;23360;46.936;15.514;2023-09-18T14:03:04;16.83;;;7.28;;
37507;SDS011;23360;46.936;15.514;2023-09-18T14:05:30;19.50;;;7.35;;
37507;SDS011;23360;46.936;15.514;2023-09-18T14:07:59;17.20;;;6.35;;
37507;SDS011;23360;46.936;15.514;2023-09-18T14:10:29;15.93;;;6.55;;
37507;SDS011;23360;46.936;15.514;2023-09-18T14:12:55;21.60;;;7.40;;
37507;SDS011;23360;46.936;15.514;2023-09-18T14:15:24;17.88;;;6.63;;
37507;SDS011;23360;46.936;15.514;2023-09-18T14:17:50;20.25;;;6.57;;
37507;SDS011;23360;46.936;15.514;2023-09-18T14:20:17;16.58;;;6.13;;
37507;SDS011;23360;46.936;15.514;2023-09-18T14:22:46;16.13;;;6.40;;
37507;SDS011;23360;46.936;15.514;2023-09-18T14:25:16;14.57;;;6.10;;
37507;SDS011;23360;46.936;15.514;2023-09-18T14:27:43;18.02;;;6.63;;
37507;SDS011;23360;46.936;15.514;2023-09-18T14:30:09;20.52;;;6.60;;
37507;SDS011;23360;46.936;15.514;2023-09-18T14:32:36;13.60;;;6.07;;
37507;SDS011;23360;46.936;15.514;2023-09-18T14:35:04;18.50;;;6.80;;
37507;SDS011;23360;46.936;15.514;2023-09-18T14:37:31;30.90;;;6.93;;
37507;SDS011;23360;46.936;15.514;2023-09-18T14:39:58;15.40;;;5.88;;
37507;SDS011;23360;46.936;15.514;2023-09-18T14:42:24;17.42;;;7.10;;